Visalia, California
Current Conditions -  °F | °C
As of 7:55 PM on Saturday 25 Oct 2014 (Local Time) from KVIS Reporting Station
Clear Clear  
Wind Chill: 64°   Ceiling: Unl
Heat Index: 64°   Visibility: 10mi
Dew Point: 52°   Wind: 14mph
Humidity: 64%   Direction: 340°NNW
Pressure: 30.06"   Gusts: NA
Location:  36.33°N, 119.29°W
Report Text: KVIS 260255Z 34012KT 10SM CLR 18/11 A3006 RMK AO1 52024
Loading
Personal Weather Stations






























Interactive Weather Map
Tropical Storm Tracking
New forecast layout! Learn more

10-Day Weather Forecast

Advertisements
Track Severe Weather on mobile